createdAt,value
2019-05-29T00:00:53.928Z,10.92
2019-05-29T00:03:24.581Z,10.91
2019-05-29T00:05:54.893Z,10.90
2019-05-29T00:08:25.927Z,10.91
2019-05-29T00:10:56.179Z,10.88
2019-05-29T00:13:26.547Z,10.88
2019-05-29T00:15:56.797Z,10.83
2019-05-29T00:18:27.082Z,10.76
2019-05-29T00:20:57.330Z,10.74
2019-05-29T00:23:27.757Z,10.77
2019-05-29T00:26:01.129Z,10.74
2019-05-29T00:28:31.482Z,10.74
2019-05-29T00:31:01.842Z,10.71
2019-05-29T00:33:32.130Z,10.72
2019-05-29T00:36:02.918Z,10.69
2019-05-29T00:38:33.726Z,10.63
2019-05-29T00:41:05.040Z,10.59
2019-05-29T00:43:35.472Z,10.59
2019-05-29T00:46:05.754Z,10.57
2019-05-29T00:48:36.711Z,10.54
2019-05-29T00:51:07.380Z,10.48
2019-05-29T00:53:38.402Z,10.47
2019-05-29T00:56:10.484Z,10.45
2019-05-29T00:58:41.594Z,10.40
2019-05-29T01:01:13.306Z,10.40
2019-05-29T01:03:44.454Z,10.40
2019-05-29T01:06:16.092Z,10.35
2019-05-29T01:08:47.052Z,10.34
2019-05-29T01:11:18.713Z,10.31
2019-05-29T01:13:49.888Z,10.31
2019-05-29T01:16:20.311Z,10.25
2019-05-29T01:18:51.761Z,10.24
2019-05-29T01:21:22.233Z,10.24
2019-05-29T01:23:52.533Z,10.24
2019-05-29T01:26:22.943Z,10.28
2019-05-29T01:28:54.657Z,10.33
2019-05-29T01:31:25.117Z,10.35
2019-05-29T01:33:55.407Z,10.42
2019-05-29T01:36:26.761Z,10.47
2019-05-29T01:38:57.993Z,10.49
2019-05-29T01:41:28.358Z,10.47
2019-05-29T01:43:59.901Z,10.48
2019-05-29T01:46:30.217Z,10.46
2019-05-29T01:49:03.541Z,10.42
2019-05-29T01:51:34.253Z,10.43
2019-05-29T01:54:05.021Z,10.46
2019-05-29T01:56:35.733Z,10.48
2019-05-29T01:59:06.341Z,10.47
2019-05-29T02:01:36.766Z,10.46
2019-05-29T02:04:07.914Z,10.52
2019-05-29T02:06:38.233Z,10.47
2019-05-29T02:09:09.177Z,10.43
2019-05-29T02:11:39.861Z,10.39
2019-05-29T02:14:11.865Z,10.39
2019-05-29T02:16:42.353Z,10.39
2019-05-29T02:19:15.798Z,10.39
2019-05-29T02:21:46.035Z,10.40
2019-05-29T02:24:17.074Z,10.40
2019-05-29T02:26:47.554Z,10.39
2019-05-29T02:29:18.757Z,10.36
2019-05-29T02:31:49.143Z,10.38
2019-05-29T02:34:20.027Z,10.37
2019-05-29T02:36:50.731Z,10.34
2019-05-29T02:39:23.119Z,10.27
2019-05-29T02:41:54.117Z,10.28
2019-05-29T02:44:25.559Z,10.26
2019-05-29T02:46:57.182Z,10.27
2019-05-29T02:49:30.128Z,10.21
2019-05-29T02:52:00.681Z,10.21
2019-05-29T02:54:32.412Z,10.23
2019-05-29T02:57:03.120Z,10.18
2019-05-29T02:59:34.064Z,10.17
2019-05-29T03:02:04.378Z,10.20
2019-05-29T03:04:34.809Z,10.17
2019-05-29T03:07:05.696Z,10.16
2019-05-29T03:09:37.047Z,10.13
2019-05-29T03:12:08.138Z,10.14
2019-05-29T03:14:38.820Z,10.12
2019-05-29T03:17:09.592Z,10.10
2019-05-29T03:19:41.271Z,10.05
2019-05-29T03:22:12.606Z,10.09
2019-05-29T03:24:42.933Z,10.05
2019-05-29T03:27:13.293Z,10.02
2019-05-29T03:29:43.540Z,10.04
2019-05-29T03:32:14.718Z,10.05
2019-05-29T03:34:47.399Z,9.98
2019-05-29T03:37:18.547Z,9.96
2019-05-29T03:39:48.945Z,9.93
2019-05-29T03:42:19.985Z,9.89
2019-05-29T03:44:50.298Z,9.85
2019-05-29T03:47:20.523Z,9.82
2019-05-29T03:49:53.418Z,9.82
2019-05-29T03:52:26.317Z,9.82
2019-05-29T03:54:56.862Z,9.76
2019-05-29T03:57:29.803Z,9.82
2019-05-29T04:00:00.431Z,9.82
2019-05-29T04:02:31.303Z,9.76
2019-05-29T04:05:02.922Z,9.74
2019-05-29T04:07:35.622Z,9.83
2019-05-29T04:10:08.514Z,9.78
2019-05-29T04:12:38.748Z,9.87
2019-05-29T04:15:11.082Z,9.75
2019-05-29T04:17:43.958Z,9.70
2019-05-29T04:20:16.968Z,9.72
2019-05-29T04:22:48.855Z,9.71
2019-05-29T04:25:21.081Z,9.73
2019-05-29T04:27:52.010Z,9.74
2019-05-29T04:30:23.737Z,9.72
2019-05-29T04:32:54.872Z,9.69
2019-05-29T04:35:25.262Z,9.66
2019-05-29T04:37:55.547Z,9.73
2019-05-29T04:40:26.179Z,9.79
2019-05-29T04:42:57.151Z,9.92
2019-05-29T04:45:30.890Z,10.10
2019-05-29T04:48:01.664Z,10.57
2019-05-29T04:50:35.731Z,11.64
2019-05-29T04:53:05.881Z,12.79
2019-05-29T04:55:37.001Z,13.83
2019-05-29T04:58:08.474Z,14.62
2019-05-29T05:00:40.125Z,15.19
2019-05-29T05:03:10.450Z,15.21
2019-05-29T05:05:40.803Z,14.76
2019-05-29T05:08:11.508Z,14.23
2019-05-29T05:10:43.677Z,14.07
2019-05-29T05:13:14.686Z,13.88
2019-05-29T05:15:46.887Z,13.45
2019-05-29T05:18:17.337Z,13.07
2019-05-29T05:20:48.051Z,12.92
2019-05-29T05:23:18.565Z,13.12
2019-05-29T05:25:48.990Z,14.32
2019-05-29T05:28:19.353Z,16.15
2019-05-29T05:30:51.631Z,17.55
2019-05-29T05:33:22.367Z,18.77
2019-05-29T05:35:52.657Z,19.21
2019-05-29T05:38:23.845Z,18.88
2019-05-29T05:40:55.121Z,18.13
2019-05-29T05:43:25.546Z,17.23
2019-05-29T05:45:56.793Z,16.62
2019-05-29T05:48:27.104Z,16.18
2019-05-29T05:50:58.206Z,15.96
2019-05-29T05:53:28.473Z,15.73
2019-05-29T05:55:59.722Z,15.49
2019-05-29T05:58:31.555Z,15.37
2019-05-29T06:01:02.627Z,15.10
2019-05-29T06:03:33.942Z,15.09
2019-05-29T06:06:04.815Z,15.00
2019-05-29T06:08:36.651Z,15.47
2019-05-29T06:11:07.857Z,16.05
2019-05-29T06:13:38.411Z,16.47
2019-05-29T06:16:09.322Z,16.57
2019-05-29T06:18:40.648Z,16.72
2019-05-29T06:21:11.639Z,16.49
2019-05-29T06:23:43.201Z,16.40
2019-05-29T06:26:14.645Z,16.47
2019-05-29T06:28:45.492Z,16.42
2019-05-29T06:31:18.327Z,16.43
2019-05-29T06:33:48.561Z,16.60
2019-05-29T06:36:18.961Z,16.81
2019-05-29T06:38:51.485Z,16.79
2019-05-29T06:41:22.130Z,16.79
2019-05-29T06:43:52.805Z,17.04
2019-05-29T06:46:23.791Z,17.08
2019-05-29T06:49:00.449Z,17.10
2019-05-29T06:51:26.452Z,17.12
2019-05-29T06:53:56.803Z,17.03
2019-05-29T06:56:27.450Z,17.38
2019-05-29T06:58:58.185Z,17.42
2019-05-29T07:01:28.837Z,17.49
2019-05-29T07:04:11.119Z,17.62
2019-05-29T07:06:32.618Z,17.64
2019-05-29T07:09:05.437Z,17.94
2019-05-29T07:11:37.132Z,18.36
2019-05-29T07:14:08.703Z,18.60
2019-05-29T07:16:47.626Z,18.50
2019-05-29T07:19:25.581Z,18.43
2019-05-29T07:21:47.085Z,18.33
2019-05-29T07:24:17.578Z,18.20
2019-05-29T07:26:48.406Z,18.12
2019-05-29T07:29:19.052Z,17.98
2019-05-29T07:31:49.414Z,17.82
2019-05-29T07:34:19.786Z,17.79
2019-05-29T07:36:50.629Z,17.59
2019-05-29T07:39:20.937Z,17.50
2019-05-29T07:41:51.692Z,17.47
2019-05-29T07:44:22.199Z,17.46
2019-05-29T07:46:53.139Z,17.54
2019-05-29T07:49:38.123Z,17.77
2019-05-29T07:51:56.240Z,18.26
2019-05-29T07:54:26.498Z,18.52
2019-05-29T07:56:56.773Z,18.69
2019-05-29T07:59:28.701Z,18.71
2019-05-29T08:02:01.111Z,18.60
2019-05-29T08:04:31.546Z,18.31
2019-05-29T08:07:03.057Z,18.27
2019-05-29T08:09:36.127Z,18.34
2019-05-29T08:12:07.069Z,18.41
2019-05-29T08:14:38.054Z,18.41
2019-05-29T08:17:08.385Z,18.25
2019-05-29T08:19:53.512Z,18.08
2019-05-29T08:22:11.889Z,17.92
2019-05-29T08:24:42.723Z,17.92
2019-05-29T08:27:13.023Z,17.81
2019-05-29T08:29:44.744Z,17.85
2019-05-29T08:32:16.251Z,18.06
2019-05-29T08:34:47.087Z,18.13
2019-05-29T08:39:59.403Z,18.47
2019-05-29T08:42:30.873Z,18.88
2019-05-29T08:45:01.140Z,19.20
2019-05-29T08:47:31.501Z,19.33
2019-05-29T08:50:17.463Z,19.73
2019-05-29T08:52:34.479Z,19.80
2019-05-29T08:55:05.624Z,19.49
2019-05-29T08:57:37.424Z,19.28
2019-05-29T09:00:09.658Z,19.14
2019-05-29T09:02:42.651Z,19.02
2019-05-29T09:05:14.893Z,18.75
2019-05-29T09:07:46.426Z,18.85
2019-05-29T09:10:18.347Z,18.93
2019-05-29T09:13:01.872Z,18.98
2019-05-29T09:15:23.083Z,19.11
2019-05-29T09:17:54.121Z,19.13
2019-05-29T09:20:37.133Z,19.16
2019-05-29T09:22:57.723Z,19.08
2019-05-29T09:25:27.973Z,18.95
2019-05-29T09:27:58.518Z,18.75
2019-05-29T09:30:28.909Z,18.71
2019-05-29T09:32:59.534Z,18.15
2019-05-29T09:35:29.851Z,18.23
2019-05-29T09:38:00.386Z,18.27
2019-05-29T09:40:31.210Z,18.22
2019-05-29T09:43:03.103Z,18.41
2019-05-29T09:45:33.421Z,18.22
2019-05-29T09:48:03.845Z,18.00
2019-05-29T09:50:49.646Z,18.15
2019-05-29T09:53:07.514Z,18.43
2019-05-29T09:55:38.435Z,18.70
2019-05-29T09:58:09.254Z,18.61
2019-05-29T10:00:39.850Z,18.34
2019-05-29T10:03:11.570Z,18.30
2019-05-29T10:05:43.473Z,18.22
2019-05-29T10:08:16.956Z,18.32
2019-05-29T10:10:49.739Z,18.25
2019-05-29T10:13:20.155Z,18.22
2019-05-29T10:15:51.036Z,18.31
2019-05-29T10:18:32.101Z,18.39
2019-05-29T10:20:54.794Z,18.54
2019-05-29T10:23:27.055Z,18.15
2019-05-29T10:26:00.279Z,18.01
2019-05-29T10:28:49.498Z,18.14
2019-05-29T10:31:04.023Z,17.93
2019-05-29T10:33:35.230Z,17.71
2019-05-29T10:36:05.860Z,17.69
2019-05-29T10:38:37.640Z,17.79
2019-05-29T10:41:08.269Z,17.73
2019-05-29T10:43:39.078Z,17.89
2019-05-29T10:46:09.395Z,17.98
2019-05-29T10:48:39.752Z,18.09
2019-05-29T10:51:09.982Z,18.08
2019-05-29T10:53:41.600Z,18.09
2019-05-29T10:56:11.867Z,18.14
2019-05-29T10:58:49.762Z,18.23
2019-05-29T11:01:14.564Z,18.32
2019-05-29T11:03:47.242Z,18.21
2019-05-29T11:06:17.621Z,18.02
2019-05-29T11:08:49.999Z,18.00
2019-05-29T11:11:21.695Z,18.34
2019-05-29T11:13:55.334Z,18.39
2019-05-29T11:16:25.974Z,18.55
2019-05-29T11:18:57.606Z,18.80
2019-05-29T11:21:28.467Z,19.02
2019-05-29T11:23:59.764Z,19.32
2019-05-29T11:26:30.094Z,19.07
2019-05-29T11:29:00.361Z,19.09
2019-05-29T11:31:30.807Z,19.20
2019-05-29T11:34:02.999Z,19.09
2019-05-29T11:36:33.274Z,18.82
2019-05-29T11:39:06.265Z,18.70
2019-05-29T11:41:36.675Z,18.75
2019-05-29T11:44:07.424Z,18.81
2019-05-29T11:46:37.842Z,18.45
2019-05-29T11:49:08.474Z,18.50
2019-05-29T11:51:39.215Z,18.33
2019-05-29T11:54:14.263Z,18.25
2019-05-29T11:56:44.574Z,17.94
2019-05-29T11:59:15.330Z,17.95
2019-05-29T12:01:50.156Z,18.05
2019-05-29T12:04:26.329Z,18.32
2019-05-29T12:06:51.239Z,18.43
2019-05-29T12:09:32.123Z,18.20
2019-05-29T12:11:56.100Z,18.02
2019-05-29T12:14:28.241Z,18.04
2019-05-29T12:17:00.260Z,18.02
2019-05-29T12:19:30.622Z,18.04
2019-05-29T12:22:02.790Z,18.21
2019-05-29T12:24:34.899Z,18.07
2019-05-29T12:27:05.428Z,18.34
2019-05-29T12:29:35.783Z,18.40
2019-05-29T12:32:09.374Z,18.65
2019-05-29T12:34:52.769Z,18.63
2019-05-29T12:37:11.528Z,18.59
2019-05-29T12:39:41.846Z,18.49
2019-05-29T12:42:12.190Z,18.38
2019-05-29T12:44:43.513Z,18.26
2019-05-29T12:47:14.260Z,18.25
2019-05-29T12:49:45.470Z,18.11
2019-05-29T12:52:16.036Z,18.27
2019-05-29T12:54:49.151Z,18.27
2019-05-29T12:57:23.279Z,18.40
2019-05-29T12:59:51.474Z,18.31
2019-05-29T13:02:22.756Z,18.40
2019-05-29T13:05:18.334Z,18.41
2019-05-29T13:07:27.196Z,18.51
2019-05-29T13:09:58.912Z,18.65
2019-05-29T13:12:30.356Z,18.76
2019-05-29T13:15:03.475Z,18.75
2019-05-29T13:17:33.772Z,18.60
2019-05-29T13:20:20.996Z,18.56
2019-05-29T13:22:40.645Z,18.60
2019-05-29T13:25:14.315Z,18.57
2019-05-29T13:27:44.662Z,18.47
2019-05-29T13:30:17.584Z,18.34
2019-05-29T13:32:47.962Z,18.03
2019-05-29T13:35:21.909Z,17.91
2019-05-29T13:37:51.211Z,17.84
2019-05-29T13:40:21.943Z,18.04
2019-05-29T13:42:52.200Z,18.28
2019-05-29T13:45:23.972Z,18.48
2019-05-29T13:47:54.179Z,18.38
2019-05-29T13:50:24.831Z,18.13
2019-05-29T13:52:55.322Z,17.79
2019-05-29T13:55:25.863Z,17.64
2019-05-29T13:57:57.496Z,17.68
2019-05-29T14:00:33.929Z,17.83
2019-05-29T14:03:02.670Z,17.79
2019-05-29T14:05:33.781Z,17.72
2019-05-29T14:08:04.801Z,17.74
2019-05-29T14:10:35.763Z,17.48
2019-05-29T14:13:07.393Z,17.37
2019-05-29T14:15:39.431Z,17.47
2019-05-29T14:18:09.883Z,17.53
2019-05-29T14:20:40.640Z,17.71
2019-05-29T14:23:11.830Z,17.42
2019-05-29T14:25:44.199Z,17.43
2019-05-29T14:28:14.613Z,17.36
2019-05-29T14:30:45.603Z,17.31
2019-05-29T14:33:16.052Z,17.28
2019-05-29T14:35:47.487Z,17.29
2019-05-29T14:38:17.727Z,17.32
2019-05-29T14:40:48.380Z,17.19
2019-05-29T14:43:18.703Z,17.12
2019-05-29T14:45:50.220Z,17.19
2019-05-29T14:48:20.539Z,17.05
2019-05-29T14:50:50.857Z,16.91
2019-05-29T14:53:21.271Z,17.00
2019-05-29T14:55:53.235Z,16.96
2019-05-29T14:58:24.802Z,16.94
2019-05-29T15:00:55.214Z,16.83
2019-05-29T15:03:26.049Z,16.78
2019-05-29T15:05:56.534Z,16.79
2019-05-29T15:08:27.105Z,16.83
2019-05-29T15:10:57.841Z,16.84
2019-05-29T15:13:28.153Z,16.99
2019-05-29T15:15:58.477Z,17.08
2019-05-29T15:18:29.598Z,17.28
2019-05-29T15:21:00.714Z,17.55
2019-05-29T15:23:31.022Z,17.86
2019-05-29T15:26:02.539Z,18.21
2019-05-29T15:28:33.263Z,18.51
2019-05-29T15:31:03.995Z,18.64
2019-05-29T15:33:34.484Z,18.78
2019-05-29T15:36:06.394Z,18.85
2019-05-29T15:38:37.044Z,18.84
2019-05-29T15:41:08.603Z,18.65
2019-05-29T15:43:39.410Z,18.62
2019-05-29T15:46:12.149Z,18.50
2019-05-29T15:48:42.623Z,18.08
2019-05-29T15:51:13.300Z,18.01
2019-05-29T15:53:43.966Z,17.92
2019-05-29T15:56:25.555Z,17.72
2019-05-29T15:58:47.264Z,17.74
2019-05-29T16:01:18.678Z,17.74
2019-05-29T16:03:50.601Z,17.81
2019-05-29T16:06:24.615Z,18.08
2019-05-29T16:08:55.167Z,18.13
2019-05-29T16:11:25.959Z,18.26
2019-05-29T16:13:56.223Z,18.35
2019-05-29T16:16:26.568Z,18.46
2019-05-29T16:19:00.415Z,18.59
2019-05-29T16:21:29.281Z,18.61
2019-05-29T16:23:59.738Z,18.66
2019-05-29T16:26:30.959Z,18.74
2019-05-29T16:29:01.327Z,18.77
2019-05-29T16:31:31.717Z,18.66
2019-05-29T16:34:02.707Z,18.59
2019-05-29T16:36:33.391Z,18.59
2019-05-29T16:39:05.316Z,18.73
2019-05-29T16:41:38.025Z,18.61
2019-05-29T16:44:09.538Z,18.76
2019-05-29T16:46:40.227Z,18.72
2019-05-29T16:49:12.481Z,18.62
2019-05-29T16:51:44.940Z,18.59
2019-05-29T16:54:15.379Z,18.49
2019-05-29T16:56:47.759Z,18.58
2019-05-29T16:59:19.226Z,18.54
2019-05-29T17:01:49.897Z,18.42
2019-05-29T17:04:20.241Z,18.23
2019-05-29T17:06:53.235Z,18.23
2019-05-29T17:09:24.570Z,18.13
2019-05-29T17:11:56.128Z,17.98
2019-05-29T17:14:27.166Z,18.20
2019-05-29T17:16:57.757Z,18.21
2019-05-29T17:19:28.242Z,18.16
2019-05-29T17:21:59.283Z,18.25
2019-05-29T17:24:29.597Z,18.29
2019-05-29T17:27:02.556Z,18.19
2019-05-29T17:29:32.781Z,18.23
2019-05-29T17:32:03.726Z,18.06
2019-05-29T17:34:34.177Z,17.93
2019-05-29T17:37:05.792Z,17.79
2019-05-29T17:39:36.548Z,17.80
2019-05-29T17:42:07.702Z,17.82
2019-05-29T17:44:38.092Z,17.82
2019-05-29T17:47:09.067Z,17.81
2019-05-29T17:49:39.619Z,17.64
2019-05-29T17:52:10.460Z,17.71
2019-05-29T17:54:40.740Z,17.80
2019-05-29T17:57:12.374Z,17.84
2019-05-29T17:59:42.693Z,17.84
2019-05-29T18:02:14.453Z,17.71
2019-05-29T18:04:44.807Z,17.84
2019-05-29T18:07:16.371Z,17.72
2019-05-29T18:09:47.032Z,17.71
2019-05-29T18:12:19.164Z,17.61
2019-05-29T18:14:51.602Z,17.64
2019-05-29T18:17:23.574Z,17.55
2019-05-29T18:19:54.452Z,17.43
2019-05-29T18:22:25.713Z,17.42
2019-05-29T18:24:56.309Z,17.36
2019-05-29T18:27:28.150Z,17.32
2019-05-29T18:29:58.671Z,17.17
2019-05-29T18:32:29.133Z,17.19
2019-05-29T18:34:59.871Z,17.07
2019-05-29T18:37:30.747Z,17.05
2019-05-29T18:40:01.270Z,17.06
2019-05-29T18:42:33.252Z,17.06
2019-05-29T18:45:19.769Z,17.04
2019-05-29T18:47:38.590Z,16.98
2019-05-29T18:50:10.201Z,16.96
2019-05-29T18:52:43.236Z,17.11
2019-05-29T18:55:15.330Z,17.09
2019-05-29T18:57:47.256Z,17.05
2019-05-29T19:00:19.522Z,16.91
2019-05-29T19:02:51.136Z,16.90
2019-05-29T19:05:21.624Z,16.88
2019-05-29T19:07:52.288Z,16.96
2019-05-29T19:10:24.294Z,17.02
2019-05-29T19:12:56.470Z,17.03
2019-05-29T19:15:28.067Z,16.93
2019-05-29T19:17:58.648Z,16.70
2019-05-29T19:20:30.503Z,16.86
2019-05-29T19:23:01.698Z,16.77
2019-05-29T19:25:33.007Z,16.81
2019-05-29T19:28:05.518Z,16.75
2019-05-29T19:30:35.852Z,16.72
2019-05-29T19:33:08.053Z,16.81
2019-05-29T19:35:38.375Z,16.75
2019-05-29T19:38:09.112Z,16.57
2019-05-29T19:40:39.770Z,16.56
2019-05-29T19:43:12.316Z,16.47
2019-05-29T19:45:42.736Z,16.59
2019-05-29T19:48:15.617Z,16.51
2019-05-29T19:50:45.968Z,16.57
2019-05-29T19:53:16.746Z,16.45
2019-05-29T19:55:47.411Z,16.44
2019-05-29T19:58:17.755Z,16.51
2019-05-29T20:00:48.051Z,16.35
2019-05-29T20:03:20.245Z,16.21
2019-05-29T20:05:53.560Z,16.23
2019-05-29T20:08:24.143Z,16.27
2019-05-29T20:10:54.456Z,16.16
2019-05-29T20:13:26.115Z,16.09
2019-05-29T20:15:57.425Z,16.04
2019-05-29T20:18:29.972Z,16.14
2019-05-29T20:21:00.705Z,16.19
2019-05-29T20:23:32.542Z,16.09
2019-05-29T20:26:03.132Z,16.14
2019-05-29T20:28:34.243Z,16.20
2019-05-29T20:31:05.367Z,16.04
2019-05-29T20:33:36.662Z,16.11
2019-05-29T20:36:08.310Z,16.01
2019-05-29T20:38:39.398Z,15.94
2019-05-29T20:41:11.031Z,16.02
2019-05-29T20:43:42.302Z,15.99
2019-05-29T20:46:13.128Z,15.90
2019-05-29T20:48:43.927Z,15.97
2019-05-29T20:51:14.653Z,15.90
2019-05-29T20:53:45.312Z,15.85
2019-05-29T20:56:16.470Z,15.90
2019-05-29T20:58:47.755Z,15.80
2019-05-29T21:01:18.522Z,15.78
2019-05-29T21:03:50.645Z,15.90
2019-05-29T21:06:20.968Z,15.81
2019-05-29T21:08:52.913Z,15.79
2019-05-29T21:11:23.675Z,15.76
2019-05-29T21:13:55.885Z,15.83
2019-05-29T21:16:27.634Z,15.85
2019-05-29T21:18:57.957Z,15.85
2019-05-29T21:21:28.199Z,15.85
2019-05-29T21:24:00.142Z,15.81
2019-05-29T21:26:30.860Z,15.91
2019-05-29T21:29:02.237Z,15.83
2019-05-29T21:31:35.376Z,15.78
2019-05-29T21:34:06.701Z,15.79
2019-05-29T21:36:37.966Z,15.65
2019-05-29T21:39:09.831Z,15.82
2019-05-29T21:41:40.397Z,15.81
2019-05-29T21:44:12.597Z,15.79
2019-05-29T21:46:43.080Z,15.63
2019-05-29T21:49:13.601Z,15.52
2019-05-29T21:51:43.943Z,15.76
2019-05-29T21:54:15.044Z,15.61
2019-05-29T21:56:47.890Z,15.48
2019-05-29T21:59:19.812Z,15.44
2019-05-29T22:01:50.140Z,15.35
2019-05-29T22:04:20.547Z,15.50
2019-05-29T22:06:51.189Z,15.30
2019-05-29T22:09:22.025Z,15.24
2019-05-29T22:11:52.430Z,15.25
2019-05-29T22:14:25.493Z,15.26
2019-05-29T22:16:57.077Z,15.26
2019-05-29T22:19:30.482Z,15.28
2019-05-29T22:22:01.320Z,15.28
2019-05-29T22:24:32.648Z,15.20
2019-05-29T22:27:03.011Z,15.20
2019-05-29T22:29:33.376Z,15.30
2019-05-29T22:32:04.105Z,15.37
2019-05-29T22:34:35.213Z,15.38
2019-05-29T22:37:06.118Z,15.33
2019-05-29T22:39:36.490Z,15.72
2019-05-29T22:42:07.034Z,15.47
2019-05-29T22:44:40.369Z,15.43
2019-05-29T22:47:11.062Z,15.42
2019-05-29T22:49:42.447Z,15.40
2019-05-29T22:52:12.763Z,15.29
2019-05-29T22:54:43.055Z,15.37
2019-05-29T22:57:13.788Z,15.31
2019-05-29T22:59:44.245Z,15.39
2019-05-29T23:02:14.511Z,15.29
2019-05-29T23:04:45.817Z,15.34
2019-05-29T23:07:16.056Z,15.45
2019-05-29T23:09:47.486Z,15.54
2019-05-29T23:12:17.805Z,15.43
2019-05-29T23:14:49.467Z,15.50
2019-05-29T23:17:20.670Z,15.49
2019-05-29T23:19:52.369Z,15.34
2019-05-29T23:22:24.615Z,15.22
2019-05-29T23:24:56.763Z,15.26
2019-05-29T23:27:27.122Z,15.10
2019-05-29T23:29:59.042Z,15.18
2019-05-29T23:32:29.303Z,15.12
2019-05-29T23:35:01.313Z,15.12
2019-05-29T23:37:32.651Z,15.17
2019-05-29T23:40:03.602Z,15.20
2019-05-29T23:42:34.145Z,15.12
2019-05-29T23:45:09.072Z,15.14
2019-05-29T23:47:39.786Z,15.16
2019-05-29T23:50:10.853Z,15.17
2019-05-29T23:52:41.197Z,15.12
2019-05-29T23:55:12.689Z,15.14
2019-05-29T23:57:43.351Z,15.10
